FDB454 VOCI-OMDB
Flight info
| Callsign | FDB454 |
|---|---|
| Flight time | N/A |
| Altitude | 34000 |
| Route | CIA Q12 NOBOD N563 LEGEN/N0463F360 N563 REXOD M762 VAXAS/N0416F240 M762 MIVEK P574 IMPED |
| Aircraft | B38M/M-SDE1FGHILORVWXY/HB1 |
Departure
| Time | N/A |
|---|---|
| Airport | Cochin International Airport (VOCI) |
Arrival
| Time | 2026-04-23 07:22 |
|---|---|
| Airport | Dubai International Airport (OMDB) |
| Time | Latitude | Longitude | Altitude | Speed | Heading |
|---|---|---|---|---|---|
| 2026-04-23 06:59 | 24.23292 | 56.92265 | 28940 ft | 419 kts | 306° |
| 2026-04-23 06:59 | 24.25061 | 56.89750 | 28439 ft | 414 kts | 306° |
| 2026-04-23 07:00 | 24.26806 | 56.87268 | 27937 ft | 409 kts | 306° |
| 2026-04-23 07:00 | 24.28536 | 56.84805 | 27406 ft | 406 kts | 305° |
| 2026-04-23 07:00 | 24.30251 | 56.82362 | 26879 ft | 403 kts | 305° |
| 2026-04-23 07:00 | 24.31859 | 56.80071 | 26378 ft | 404 kts | 305° |
| 2026-04-23 07:01 | 24.33573 | 56.77629 | 25854 ft | 404 kts | 305° |
| 2026-04-23 07:01 | 24.35284 | 56.75189 | 25343 ft | 403 kts | 304° |
| 2026-04-23 07:01 | 24.36987 | 56.72759 | 24821 ft | 401 kts | 304° |
| 2026-04-23 07:01 | 24.38684 | 56.70337 | 24310 ft | 399 kts | 304° |
| 2026-04-23 07:02 | 24.40371 | 56.67928 | 23811 ft | 397 kts | 304° |
| 2026-04-23 07:02 | 24.42049 | 56.65530 | 23284 ft | 395 kts | 304° |
| 2026-04-23 07:02 | 24.43766 | 56.63180 | 22671 ft | 396 kts | 309° |
| 2026-04-23 07:02 | 24.45653 | 56.61038 | 22131 ft | 394 kts | 310° |
| 2026-04-23 07:03 | 24.47553 | 56.58849 | 21668 ft | 389 kts | 310° |
| 2026-04-23 07:03 | 24.49376 | 56.56725 | 21200 ft | 385 kts | 310° |
| 2026-04-23 07:03 | 24.51199 | 56.54589 | 20719 ft | 382 kts | 310° |
| 2026-04-23 07:03 | 24.53010 | 56.52459 | 20242 ft | 380 kts | 310° |
| 2026-04-23 07:04 | 24.54805 | 56.50347 | 19777 ft | 377 kts | 310° |
| 2026-04-23 07:04 | 24.56591 | 56.48243 | 19303 ft | 375 kts | 310° |
| 2026-04-23 07:04 | 24.58363 | 56.46154 | 18841 ft | 373 kts | 310° |
| 2026-04-23 07:04 | 24.60131 | 56.44070 | 18380 ft | 372 kts | 310° |
| 2026-04-23 07:05 | 24.61892 | 56.41992 | 17875 ft | 371 kts | 310° |
| 2026-04-23 07:05 | 24.63642 | 56.39927 | 17374 ft | 368 kts | 310° |
| 2026-04-23 07:05 | 24.65381 | 56.37874 | 16900 ft | 365 kts | 310° |
| 2026-04-23 07:05 | 24.67107 | 56.35835 | 16443 ft | 364 kts | 310° |
| 2026-04-23 07:06 | 24.68833 | 56.33795 | 15973 ft | 365 kts | 310° |
| 2026-04-23 07:06 | 24.70578 | 56.31763 | 15494 ft | 367 kts | 314° |
| 2026-04-23 07:06 | 24.72709 | 56.30190 | 14973 ft | 373 kts | 335° |
| 2026-04-23 07:06 | 24.75167 | 56.29308 | 14527 ft | 371 kts | 342° |
| 2026-04-23 07:07 | 24.77644 | 56.28522 | 14031 ft | 370 kts | 343° |
| 2026-04-23 07:07 | 24.80124 | 56.27754 | 13483 ft | 370 kts | 343° |
| 2026-04-23 07:07 | 24.82598 | 56.27002 | 12993 ft | 367 kts | 343° |
| 2026-04-23 07:07 | 24.85052 | 56.26256 | 12502 ft | 364 kts | 341° |
| 2026-04-23 07:08 | 24.87285 | 56.25036 | 12034 ft | 356 kts | 320° |
| 2026-04-23 07:08 | 24.88915 | 56.23052 | 11658 ft | 346 kts | 300° |
| 2026-04-23 07:08 | 24.90123 | 56.20791 | 11261 ft | 341 kts | 298° |
| 2026-04-23 07:08 | 24.91299 | 56.18559 | 11002 ft | 331 kts | 298° |
| 2026-04-23 07:09 | 24.92423 | 56.16402 | 10828 ft | 319 kts | 297° |
| 2026-04-23 07:09 | 24.93409 | 56.14497 | 10671 ft | 309 kts | 297° |
| 2026-04-23 07:09 | 24.94454 | 56.12471 | 10495 ft | 299 kts | 297° |
| 2026-04-23 07:09 | 24.95464 | 56.10505 | 10326 ft | 290 kts | 297° |
| 2026-04-23 07:10 | 24.96441 | 56.08606 | 10166 ft | 280 kts | 297° |
| 2026-04-23 07:10 | 24.97363 | 56.06760 | 10043 ft | 269 kts | 292° |
| 2026-04-23 07:10 | 24.97976 | 56.04842 | 9754 ft | 264 kts | 285° |
| 2026-04-23 07:10 | 24.98531 | 56.02934 | 9498 ft | 259 kts | 286° |
| 2026-04-23 07:11 | 24.99087 | 56.01041 | 9253 ft | 260 kts | 286° |
| 2026-04-23 07:11 | 24.99642 | 55.99167 | 9014 ft | 261 kts | 286° |
| 2026-04-23 07:11 | 25.00207 | 55.97266 | 8769 ft | 260 kts | 286° |
| 2026-04-23 07:12 | 25.01333 | 55.93479 | 8308 ft | 259 kts | 286° |
| 2026-04-23 07:12 | 25.01896 | 55.91591 | 8077 ft | 259 kts | 286° |
| 2026-04-23 07:12 | 25.02458 | 55.89701 | 7838 ft | 259 kts | 286° |
| 2026-04-23 07:12 | 25.03019 | 55.87813 | 7595 ft | 259 kts | 286° |
| 2026-04-23 07:13 | 25.03580 | 55.85927 | 7365 ft | 258 kts | 286° |
| 2026-04-23 07:13 | 25.04137 | 55.84052 | 7134 ft | 257 kts | 286° |
| 2026-04-23 07:13 | 25.04694 | 55.82178 | 6893 ft | 257 kts | 285° |
| 2026-04-23 07:13 | 25.05250 | 55.80304 | 6696 ft | 257 kts | 285° |
| 2026-04-23 07:14 | 25.05788 | 55.78490 | 6451 ft | 257 kts | 285° |
| 2026-04-23 07:14 | 25.06162 | 55.77229 | 6302 ft | 256 kts | 285° |
| 2026-04-23 07:14 | 25.06893 | 55.74762 | 5970 ft | 255 kts | 286° |
| 2026-04-23 07:14 | 25.07444 | 55.72903 | 5741 ft | 255 kts | 285° |
| 2026-04-23 07:15 | 25.07816 | 55.71648 | 5577 ft | 255 kts | 285° |
| 2026-04-23 07:15 | 25.08362 | 55.69801 | 5349 ft | 251 kts | 285° |
| 2026-04-23 07:15 | 25.08900 | 55.67986 | 5109 ft | 248 kts | 285° |
| 2026-04-23 07:15 | 25.09431 | 55.66188 | 4812 ft | 245 kts | 285° |
| 2026-04-23 07:16 | 25.09955 | 55.64408 | 4571 ft | 242 kts | 285° |
| 2026-04-23 07:16 | 25.10641 | 55.62727 | 4308 ft | 240 kts | 300° |
| 2026-04-23 07:16 | 25.11658 | 55.61287 | 4102 ft | 237 kts | 309° |
| 2026-04-23 07:16 | 25.12726 | 55.59957 | 3859 ft | 234 kts | 308° |
| 2026-04-23 07:17 | 25.13732 | 55.58570 | 3630 ft | 227 kts | 302° |
| 2026-04-23 07:17 | 25.14566 | 55.57144 | 3448 ft | 218 kts | 293° |
| 2026-04-23 07:17 | 25.15141 | 55.55624 | 3181 ft | 211 kts | 288° |
| 2026-04-23 07:17 | 25.15623 | 55.54118 | 2945 ft | 206 kts | 289° |
| 2026-04-23 07:18 | 25.16260 | 55.52721 | 2762 ft | 200 kts | 296° |
| 2026-04-23 07:18 | 25.16996 | 55.51381 | 2392 ft | 208 kts | 300° |
| 2026-04-23 07:18 | 25.17745 | 55.50051 | 2193 ft | 198 kts | 300° |
| 2026-04-23 07:18 | 25.18460 | 55.48763 | 1919 ft | 196 kts | 299° |
| 2026-04-23 07:19 | 25.19149 | 55.47515 | 1686 ft | 182 kts | 300° |
| 2026-04-23 07:19 | 25.19774 | 55.46386 | 1472 ft | 167 kts | 298° |
| 2026-04-23 07:19 | 25.20379 | 55.45293 | 1301 ft | 169 kts | 300° |
| 2026-04-23 07:19 | 25.20985 | 55.44198 | 1055 ft | 161 kts | 299° |
| 2026-04-23 07:20 | 25.21559 | 55.43155 | 840 ft | 158 kts | 299° |
| 2026-04-23 07:20 | 25.22136 | 55.42123 | 648 ft | 159 kts | 300° |
| 2026-04-23 07:20 | 25.22717 | 55.41102 | 412 ft | 157 kts | 302° |
| 2026-04-23 07:20 | 25.23285 | 55.40077 | 215 ft | 156 kts | 300° |
| 2026-04-23 07:21 | 25.23834 | 55.39044 | 69 ft | 154 kts | 300° |
| 2026-04-23 07:21 | 25.24348 | 55.38129 | 54 ft | 124 kts | 301° |
| 2026-04-23 07:21 | 25.24736 | 55.37424 | 30 ft | 65 kts | 301° |
| 2026-04-23 07:21 | 25.24962 | 55.37012 | 33 ft | 63 kts | 301° |
| 2026-04-23 07:22 | 25.25026 | 55.36585 | 27 ft | 56 kts | 271° |
| 2026-04-23 07:22 | 25.25116 | 55.36268 | 27 ft | 30 kts | 302° |
| 2026-04-23 07:22 | 25.25161 | 55.36189 | 26 ft | 1 kts | 302° |
| 2026-04-23 07:22 | 25.25171 | 55.36171 | 25 ft | 4 kts | 302° |
| 2026-04-23 07:23 | 25.25189 | 55.36138 | 27 ft | 7 kts | 302° |